Time;durP1;ratioP1;P1;durP2;ratioP2;P2;SDS_P1;SDS_P2;PMS_P1;PMS_P2;Temp;Humidity;BMP_temperature;BMP_pressure;BME280_temperature;BME280_humidity;BME280_pressure;Samples;Min_cycle;Max_cycle;Signal;HPM_P1;HPM_P2
2023/12/23 00:01:16;;;;;;;20.83;2.63;;;5.10;99.90;;;;;;5010395;28;20103;-81
2023/12/23 00:03:42;;;;;;;17.27;1.95;;;5.10;99.90;;;;;;5009135;28;20042;-84
2023/12/23 00:06:07;;;;;;;16.92;2.28;;;5.10;99.90;;;;;;5009370;28;20047;-85
2023/12/23 00:08:33;;;;;;;9.68;1.80;;;5.10;99.90;;;;;;5009681;28;20137;-83
2023/12/23 00:10:58;;;;;;;12.18;1.80;;;5.10;99.90;;;;;;5009966;28;20053;-83
2023/12/23 00:13:24;;;;;;;9.57;1.30;;;5.20;99.90;;;;;;5002551;28;20046;-84
2023/12/23 00:15:50;;;;;;;11.32;1.60;;;5.20;99.90;;;;;;5002376;28;20104;-84
2023/12/23 00:18:15;;;;;;;15.68;1.85;;;5.20;99.90;;;;;;5009552;28;20402;-84
2023/12/23 00:20:41;;;;;;;13.85;2.78;;;5.20;99.90;;;;;;4995380;28;20093;-83
2023/12/23 00:23:07;;;;;;;11.77;2.00;;;5.20;99.90;;;;;;4995531;28;20042;-82
2023/12/23 00:25:33;;;;;;;15.80;2.55;;;5.20;99.90;;;;;;5009976;28;20074;-82
2023/12/23 00:27:58;;;;;;;15.07;1.70;;;5.10;99.90;;;;;;5010802;28;20060;-82
2023/12/23 00:30:24;;;;;;;12.48;2.67;;;5.40;99.90;;;;;;5011202;28;20053;-82
2023/12/23 00:32:50;;;;;;;9.55;2.10;;;5.10;99.90;;;;;;5006111;28;20081;-83
2023/12/23 00:35:17;;;;;;;19.98;2.72;;;5.50;99.90;;;;;;5010072;28;20121;-83
2023/12/23 00:37:43;;;;;;;14.38;2.20;;;5.00;99.90;;;;;;5010514;28;20053;-82
2023/12/23 00:40:09;;;;;;;12.32;3.15;;;5.00;99.90;;;;;;5010747;28;20076;-82
2023/12/23 00:42:36;;;;;;;18.75;2.45;;;5.00;99.90;;;;;;5008849;28;20077;-82
2023/12/23 00:45:02;;;;;;;16.48;2.42;;;5.30;99.90;;;;;;5006613;28;20145;-82
2023/12/23 00:47:27;;;;;;;16.20;2.70;;;5.00;99.90;;;;;;5011560;28;20494;-83
2023/12/23 00:49:53;;;;;;;14.13;2.90;;;5.00;99.90;;;;;;5011960;28;20493;-84
2023/12/23 00:52:19;;;;;;;15.02;2.00;;;5.00;99.90;;;;;;5011621;28;20386;-82
2023/12/23 00:54:44;;;;;;;18.15;2.35;;;5.50;99.90;;;;;;5010941;28;20042;-83
2023/12/23 00:57:10;;;;;;;16.25;2.35;;;5.10;99.90;;;;;;5010891;28;20054;-84
2023/12/23 00:59:36;;;;;;;10.93;2.05;;;5.10;99.90;;;;;;5011407;28;20398;-83
2023/12/23 01:02:01;;;;;;;13.27;1.83;;;5.20;99.90;;;;;;5010761;28;20132;-84
2023/12/23 01:04:27;;;;;;;13.80;2.25;;;5.10;99.90;;;;;;5009990;28;20056;-83
2023/12/23 01:06:52;;;;;;;18.13;2.90;;;5.20;99.90;;;;;;5009875;28;20509;-82
2023/12/23 01:09:18;;;;;;;7.28;1.88;;;5.20;99.90;;;;;;4994815;28;20134;-84
2023/12/23 01:11:43;;;;;;;11.65;1.60;;;5.20;99.90;;;;;;5010498;28;20050;-82
2023/12/23 01:14:09;;;;;;;11.20;2.35;;;5.20;99.90;;;;;;5010817;28;20054;-82
2023/12/23 01:16:35;;;;;;;11.85;1.60;;;5.30;99.90;;;;;;5010322;28;20037;-83
2023/12/23 01:19:00;;;;;;;15.88;1.88;;;5.20;99.90;;;;;;5010485;28;20068;-83
2023/12/23 01:21:26;;;;;;;11.45;1.70;;;5.30;99.90;;;;;;5010960;28;20125;-82
2023/12/23 01:23:51;;;;;;;10.18;1.27;;;5.30;99.90;;;;;;5001561;28;20097;-84
2023/12/23 01:26:17;;;;;;;11.07;1.50;;;5.30;99.90;;;;;;5003273;28;20405;-83
2023/12/23 01:28:43;;;;;;;9.70;2.47;;;5.30;99.90;;;;;;5010445;28;20046;-83
2023/12/23 01:31:08;;;;;;;17.02;2.95;;;5.60;99.90;;;;;;5008362;28;20061;-82
2023/12/23 01:33:34;;;;;;;12.45;2.08;;;5.30;99.90;;;;;;5006816;28;20085;-83
2023/12/23 01:36:00;;;;;;;9.40;1.60;;;5.40;99.90;;;;;;5013857;28;20809;-83
2023/12/23 01:38:25;;;;;;;13.95;1.40;;;5.40;99.90;;;;;;5014636;28;20104;-82
2023/12/23 01:40:51;;;;;;;11.43;1.50;;;5.40;99.90;;;;;;5013806;28;20077;-83
2023/12/23 01:43:16;;;;;;;19.10;2.13;;;5.50;99.90;;;;;;5013167;28;20052;-82
2023/12/23 01:45:42;;;;;;;15.90;2.13;;;5.40;99.90;;;;;;5014862;28;20038;-83
2023/12/23 01:48:10;;;;;;;13.50;2.35;;;5.40;99.90;;;;;;5014065;28;20117;-82
2023/12/23 01:50:37;;;;;;;14.27;1.70;;;5.40;99.90;;;;;;5000995;28;20145;-82
2023/12/23 01:53:04;;;;;;;12.40;2.00;;;5.40;99.90;;;;;;5015573;28;20046;-83
2023/12/23 01:55:31;;;;;;;24.13;2.40;;;5.40;99.90;;;;;;5014517;28;20041;-83
2023/12/23 01:57:57;;;;;;;13.27;2.58;;;5.50;99.90;;;;;;5014691;28;20050;-82
2023/12/23 02:00:23;;;;;;;21.42;2.75;;;5.50;99.90;;;;;;5014298;28;20100;-84
2023/12/23 02:02:49;;;;;;;13.95;3.38;;;5.50;99.90;;;;;;5014806;28;20382;-82
2023/12/23 02:05:15;;;;;;;13.57;1.48;;;5.60;99.90;;;;;;5014174;28;20045;-83
2023/12/23 02:07:45;;;;;;;14.23;1.70;;;5.60;99.90;;;;;;5014612;28;20461;-84
2023/12/23 02:10:11;;;;;;;18.65;1.73;;;5.60;99.90;;;;;;5013966;28;20120;-84
2023/12/23 02:12:48;;;;;;;13.40;2.30;;;5.60;99.90;;;;;;5014304;28;20050;-84
2023/12/23 02:15:15;;;;;;;11.13;1.40;;;5.60;99.90;;;;;;5014249;28;20042;-84
2023/12/23 02:17:41;;;;;;;10.00;1.58;;;5.60;99.90;;;;;;5014282;28;20050;-82
2023/12/23 02:20:07;;;;;;;11.50;2.20;;;5.60;99.90;;;;;;5013845;28;20046;-82
2023/12/23 02:22:33;;;;;;;15.38;1.63;;;5.60;99.90;;;;;;4991694;28;20042;-83
2023/12/23 02:24:59;;;;;;;12.75;3.33;;;5.60;99.90;;;;;;4981758;28;20695;-83
2023/12/23 02:27:38;;;;;;;12.15;1.40;;;5.60;99.90;;;;;;5014794;28;20121;-84
2023/12/23 02:30:05;;;;;;;9.63;1.20;;;5.70;99.90;;;;;;5014591;28;20092;-84
2023/12/23 02:32:32;;;;;;;14.15;1.60;;;5.70;99.90;;;;;;5012880;28;20054;-83
2023/12/23 02:34:58;;;;;;;9.20;1.40;;;5.70;99.90;;;;;;5011833;28;20121;-83
2023/12/23 02:37:23;;;;;;;16.70;1.75;;;5.60;99.90;;;;;;5011656;28;20042;-82
2023/12/23 02:39:49;;;;;;;10.20;1.20;;;5.70;99.90;;;;;;5013221;28;20053;-82
2023/12/23 02:42:14;;;;;;;11.48;1.77;;;5.60;99.90;;;;;;5012584;28;20060;-82
2023/12/23 02:44:40;;;;;;;12.32;1.95;;;5.60;99.90;;;;;;5012982;28;20042;-84
2023/12/23 02:47:06;;;;;;;11.85;1.75;;;6.00;99.90;;;;;;5007377;28;20042;-83
2023/12/23 02:49:31;;;;;;;16.00;1.70;;;5.60;99.90;;;;;;5009284;28;20056;-83
2023/12/23 02:51:57;;;;;;;19.48;1.45;;;5.80;99.90;;;;;;5016893;28;20057;-84
2023/12/23 02:54:22;;;;;;;12.68;1.38;;;5.60;99.90;;;;;;4997195;28;20096;-84
2023/12/23 02:56:48;;;;;;;21.70;2.40;;;5.60;99.90;;;;;;5008316;28;20046;-82
2023/12/23 02:59:14;;;;;;;8.65;1.70;;;5.60;99.90;;;;;;5004560;28;20506;-82
2023/12/23 03:01:39;;;;;;;13.90;1.17;;;5.50;99.90;;;;;;5012416;28;20054;-82
2023/12/23 03:04:05;;;;;;;10.93;1.45;;;5.50;99.90;;;;;;5012319;28;20697;-84
2023/12/23 03:06:30;;;;;;;14.38;1.65;;;5.50;99.90;;;;;;5011656;28;20057;-83
2023/12/23 03:08:56;;;;;;;14.02;1.25;;;5.50;99.90;;;;;;5007079;28;20042;-83
2023/12/23 03:11:22;;;;;;;9.80;1.38;;;5.50;99.90;;;;;;5012372;28;20038;-82
2023/12/23 03:13:47;;;;;;;12.40;2.05;;;5.50;99.90;;;;;;5011886;28;20056;-83
2023/12/23 03:16:17;;;;;;;9.32;1.40;;;5.50;99.90;;;;;;5012312;28;20050;-83
2023/12/23 03:18:44;;;;;;;13.65;1.25;;;5.40;99.90;;;;;;5011688;28;20042;-82
2023/12/23 03:21:10;;;;;;;5.38;1.52;;;5.40;99.90;;;;;;5012076;28;20530;-82
2023/12/23 03:23:35;;;;;;;10.07;1.60;;;5.80;99.90;;;;;;5008344;28;20100;-82
2023/12/23 03:26:01;;;;;;;6.35;1.30;;;5.50;99.90;;;;;;5011591;28;20046;-82
2023/12/23 03:28:27;;;;;;;6.45;0.75;;;5.40;99.90;;;;;;5010560;28;20042;-82
2023/12/23 03:30:52;;;;;;;9.13;0.90;;;5.30;99.90;;;;;;5012313;28;20038;-83
2023/12/23 03:33:18;;;;;;;16.42;1.42;;;5.30;99.90;;;;;;4997084;28;20058;-82
2023/12/23 03:35:44;;;;;;;9.25;0.80;;;5.30;99.90;;;;;;4992038;28;20061;-82
2023/12/23 03:38:09;;;;;;;7.78;1.40;;;5.30;99.90;;;;;;5010726;28;20417;-83
2023/12/23 03:40:35;;;;;;;12.48;1.23;;;5.40;99.90;;;;;;5010760;28;20121;-84
2023/12/23 03:43:01;;;;;;;12.35;0.90;;;5.30;99.90;;;;;;4998203;28;20046;-83
2023/12/23 03:45:26;;;;;;;10.20;1.05;;;5.30;99.90;;;;;;5001561;28;20052;-82
2023/12/23 03:47:52;;;;;;;10.77;1.02;;;5.30;99.90;;;;;;5006187;28;20042;-82
2023/12/23 03:50:18;;;;;;;10.30;1.20;;;5.40;99.90;;;;;;5013727;28;20103;-82
2023/12/23 03:52:43;;;;;;;7.60;1.05;;;5.60;99.90;;;;;;5011618;28;20078;-82
2023/12/23 03:55:11;;;;;;;10.82;1.70;;;5.30;99.90;;;;;;5011852;28;20045;-82
2023/12/23 03:57:37;;;;;;;11.95;1.10;;;5.30;99.90;;;;;;5003386;28;20121;-83
2023/12/23 04:00:04;;;;;;;8.70;1.00;;;5.30;99.90;;;;;;5009864;28;20124;-82
2023/12/23 04:02:30;;;;;;;7.38;1.10;;;5.30;99.90;;;;;;5010696;28;20576;-82
2023/12/23 04:04:55;;;;;;;10.45;1.38;;;5.20;99.90;;;;;;4991600;28;20101;-82
2023/12/23 04:07:21;;;;;;;8.95;1.23;;;5.30;99.90;;;;;;5008464;28;20397;-82
2023/12/23 04:09:47;;;;;;;16.45;2.00;;;5.30;99.90;;;;;;5011685;28;20058;-82
2023/12/23 04:12:12;;;;;;;8.73;1.15;;;5.30;99.90;;;;;;5011006;28;20405;-83
2023/12/23 04:14:40;;;;;;;11.77;1.20;;;5.30;99.90;;;;;;5010479;28;20103;-82
2023/12/23 04:17:06;;;;;;;7.47;1.02;;;5.30;99.90;;;;;;5011251;28;20050;-82
2023/12/23 04:19:31;;;;;;;7.53;1.00;;;5.50;99.90;;;;;;5009364;28;20046;-82
2023/12/23 04:21:58;;;;;;;8.35;1.00;;;5.30;99.90;;;;;;5010591;28;20053;-82
2023/12/23 04:24:26;;;;;;;7.97;1.17;;;5.30;99.90;;;;;;4994881;28;20375;-83
2023/12/23 04:26:52;;;;;;;7.13;0.90;;;5.30;99.90;;;;;;5010237;28;20054;-82
2023/12/23 04:29:18;;;;;;;10.55;0.98;;;5.30;99.90;;;;;;4999212;28;20080;-82
2023/12/23 04:31:43;;;;;;;8.50;1.00;;;5.30;99.90;;;;;;4940744;28;1129149;-82
2023/12/23 04:34:10;;;;;;;9.65;1.30;;;5.30;99.90;;;;;;5010088;28;20050;-82
2023/12/23 04:36:36;;;;;;;8.52;1.20;;;5.30;99.90;;;;;;5003476;28;20498;-82
2023/12/23 04:39:05;;;;;;;6.65;0.95;;;5.30;99.90;;;;;;4997642;28;20054;-82
2023/12/23 04:41:32;;;;;;;9.88;1.60;;;5.30;99.90;;;;;;5005045;28;20049;-82
2023/12/23 04:43:58;;;;;;;10.80;1.58;;;5.70;99.90;;;;;;5000811;28;20541;-82
2023/12/23 04:46:24;;;;;;;6.50;0.70;;;5.30;99.90;;;;;;5008135;28;20049;-82
2023/12/23 04:48:49;;;;;;;7.95;1.17;;;5.30;99.90;;;;;;5000237;28;20054;-82
2023/12/23 04:51:15;;;;;;;8.07;0.90;;;5.30;99.90;;;;;;5016780;28;20046;-83
2023/12/23 04:53:42;;;;;;;8.30;0.95;;;5.30;99.90;;;;;;5010029;28;20046;-82
2023/12/23 04:56:08;;;;;;;5.43;0.82;;;5.40;99.90;;;;;;5010292;28;20157;-82
2023/12/23 04:58:35;;;;;;;9.07;1.00;;;5.30;99.90;;;;;;5012055;28;20096;-82
2023/12/23 05:01:01;;;;;;;5.75;0.70;;;5.30;99.90;;;;;;5011306;28;20054;-82
2023/12/23 05:03:26;;;;;;;11.30;1.13;;;5.30;99.90;;;;;;5010241;28;20394;-82
2023/12/23 05:05:52;;;;;;;5.90;0.82;;;5.40;99.90;;;;;;5010077;28;20073;-82
2023/12/23 05:08:18;;;;;;;6.63;0.73;;;5.30;99.90;;;;;;5014245;28;20037;-82
2023/12/23 05:10:46;;;;;;;6.47;1.15;;;5.30;99.90;;;;;;4998342;28;20054;-82
2023/12/23 05:13:12;;;;;;;6.85;0.88;;;5.40;99.90;;;;;;4991969;28;20053;-82
2023/12/23 05:15:38;;;;;;;7.03;1.13;;;5.30;99.90;;;;;;4997230;28;20046;-82
2023/12/23 05:18:03;;;;;;;6.00;0.55;;;5.30;99.90;;;;;;5009080;28;20034;-82
2023/12/23 05:20:29;;;;;;;3.72;0.60;;;5.40;99.90;;;;;;5009956;28;20150;-82
2023/12/23 05:22:55;;;;;;;9.20;0.77;;;5.30;99.90;;;;;;5000115;28;20058;-83
2023/12/23 05:25:20;;;;;;;4.75;0.70;;;5.30;99.90;;;;;;4996011;28;20046;-82
2023/12/23 05:27:46;;;;;;;2.28;0.50;;;5.40;99.90;;;;;;5009920;28;20034;-82
2023/12/23 05:30:12;;;;;;;3.42;0.60;;;5.30;99.90;;;;;;4993147;28;20070;-82
2023/12/23 05:32:37;;;;;;;3.90;0.75;;;5.40;99.90;;;;;;5004951;28;20099;-82
2023/12/23 05:35:03;;;;;;;6.70;0.80;;;5.40;99.90;;;;;;5006181;28;20046;-82
2023/12/23 05:37:29;;;;;;;4.68;0.45;;;5.40;99.90;;;;;;5009763;28;20058;-82
2023/12/23 05:39:55;;;;;;;7.85;0.80;;;5.60;99.90;;;;;;4994801;28;20422;-83
2023/12/23 05:42:20;;;;;;;3.25;0.57;;;5.60;99.90;;;;;;5006903;28;20045;-83
2023/12/23 05:44:46;;;;;;;4.90;0.90;;;5.40;99.90;;;;;;5010022;28;20129;-82
2023/12/23 05:47:13;;;;;;;4.53;0.65;;;5.40;99.90;;;;;;5009730;28;20139;-82
2023/12/23 05:49:38;;;;;;;3.92;0.80;;;5.40;99.90;;;;;;4998162;28;20077;-82
2023/12/23 05:52:04;;;;;;;2.53;0.60;;;5.40;99.90;;;;;;5001389;28;20526;-83
2023/12/23 05:54:29;;;;;;;4.85;1.20;;;5.40;99.90;;;;;;5003047;28;20086;-82
2023/12/23 05:56:55;;;;;;;4.43;0.95;;;5.40;99.90;;;;;;5009198;28;20104;-82
2023/12/23 05:59:21;;;;;;;2.80;0.60;;;5.40;99.90;;;;;;5009845;28;20552;-82
2023/12/23 06:01:46;;;;;;;4.25;0.95;;;5.40;99.90;;;;;;5008966;28;20041;-82
2023/12/23 06:04:12;;;;;;;5.15;0.52;;;5.40;99.90;;;;;;5008336;28;20053;-82
2023/12/23 06:06:37;;;;;;;3.42;0.52;;;5.40;99.90;;;;;;5009701;28;20625;-82
2023/12/23 06:09:03;;;;;;;5.88;0.80;;;5.40;99.90;;;;;;5009247;28;20050;-82
2023/12/23 06:11:29;;;;;;;6.22;0.80;;;5.40;99.90;;;;;;5008970;28;20703;-82
2023/12/23 06:13:55;;;;;;;5.13;0.63;;;5.40;99.90;;;;;;5009169;28;20046;-82
2023/12/23 06:16:20;;;;;;;4.97;0.73;;;5.40;99.90;;;;;;5007754;28;20441;-82
2023/12/23 06:18:46;;;;;;;5.57;1.23;;;5.40;99.90;;;;;;5002624;28;20046;-80
2023/12/23 06:21:11;;;;;;;4.13;0.55;;;5.40;99.90;;;;;;4998391;28;20093;-80
2023/12/23 06:23:37;;;;;;;4.95;0.90;;;5.40;99.90;;;;;;5006513;28;20068;-80
2023/12/23 06:26:03;;;;;;;4.40;0.70;;;5.40;99.90;;;;;;5013334;28;20046;-80
2023/12/23 06:28:29;;;;;;;4.43;0.50;;;5.40;99.90;;;;;;5010897;28;20053;-80
2023/12/23 06:30:54;;;;;;;3.55;0.60;;;5.40;99.90;;;;;;5012258;28;20124;-80
2023/12/23 06:33:20;;;;;;;4.57;0.65;;;5.40;99.90;;;;;;5008960;28;20086;-80
2023/12/23 06:35:45;;;;;;;5.90;1.15;;;5.40;99.90;;;;;;5012996;28;20116;-80
2023/12/23 06:38:13;;;;;;;6.15;1.40;;;5.40;99.90;;;;;;5011938;28;20549;-80
2023/12/23 06:40:39;;;;;;;7.35;2.03;;;5.30;99.90;;;;;;5012551;28;20093;-81
2023/12/23 06:43:05;;;;;;;4.47;1.13;;;5.70;99.90;;;;;;5011385;28;20069;-81
2023/12/23 06:45:30;;;;;;;3.55;1.00;;;5.40;99.90;;;;;;5013783;28;20046;-81
2023/12/23 06:47:56;;;;;;;8.77;0.90;;;5.70;99.90;;;;;;5011419;28;20044;-81
2023/12/23 06:50:22;;;;;;;3.08;0.57;;;5.40;99.90;;;;;;5018310;28;20073;-81
2023/12/23 06:52:47;;;;;;;5.20;0.63;;;5.30;99.90;;;;;;5010957;28;20046;-81
2023/12/23 06:55:13;;;;;;;3.10;0.43;;;5.30;99.90;;;;;;5011793;28;20498;-81
2023/12/23 06:57:39;;;;;;;2.10;0.40;;;5.30;99.90;;;;;;5022636;28;20068;-81
2023/12/23 07:00:07;;;;;;;3.38;0.50;;;5.30;99.90;;;;;;5007941;28;20049;-81
2023/12/23 07:02:32;;;;;;;4.45;0.52;;;5.30;99.90;;;;;;5012424;28;20077;-81
2023/12/23 07:04:58;;;;;;;1.63;0.38;;;5.30;99.90;;;;;;5003472;28;20077;-81
2023/12/23 07:07:24;;;;;;;2.88;0.52;;;5.30;99.90;;;;;;5009779;28;20042;-81
2023/12/23 07:09:49;;;;;;;2.70;0.40;;;5.30;99.90;;;;;;4993796;28;20046;-81
2023/12/23 07:12:15;;;;;;;3.22;0.45;;;5.30;99.90;;;;;;5008233;28;20046;-80
2023/12/23 07:14:41;;;;;;;2.05;0.52;;;5.30;99.90;;;;;;5007075;28;20045;-81
2023/12/23 07:17:07;;;;;;;2.88;0.30;;;5.30;99.90;;;;;;5005936;28;20045;-81
2023/12/23 07:19:33;;;;;;;3.05;0.40;;;5.30;99.90;;;;;;5007280;28;20053;-81
2023/12/23 07:21:58;;;;;;;2.28;0.52;;;5.20;99.90;;;;;;5005283;28;20069;-80
2023/12/23 07:24:24;;;;;;;2.25;0.50;;;5.30;99.90;;;;;;5010760;28;20054;-81
2023/12/23 07:26:50;;;;;;;1.40;0.50;;;5.60;99.90;;;;;;5011822;28;20121;-81
2023/12/23 07:29:17;;;;;;;1.55;0.50;;;5.20;99.90;;;;;;4989396;28;20042;-80
2023/12/23 07:31:42;;;;;;;2.55;0.60;;;5.20;99.90;;;;;;5011690;28;20042;-81
2023/12/23 07:34:08;;;;;;;2.05;0.60;;;5.20;99.90;;;;;;5005955;28;20521;-80
2023/12/23 07:36:34;;;;;;;2.17;0.60;;;5.20;99.90;;;;;;5009481;28;20049;-81
2023/12/23 07:39:00;;;;;;;1.63;0.40;;;5.30;99.90;;;;;;5007567;28;20042;-81
2023/12/23 07:41:25;;;;;;;3.13;0.60;;;5.20;99.90;;;;;;5002875;28;20125;-81
2023/12/23 07:43:52;;;;;;;2.85;0.88;;;5.60;99.90;;;;;;5007930;28;20046;-81
2023/12/23 07:46:18;;;;;;;3.30;0.98;;;5.20;99.90;;;;;;5001704;28;20047;-81
2023/12/23 07:48:43;;;;;;;3.40;0.80;;;5.20;99.90;;;;;;5009553;28;20038;-81
2023/12/23 07:51:09;;;;;;;3.08;0.80;;;5.20;99.90;;;;;;5008189;28;20074;-81
2023/12/23 07:53:35;;;;;;;2.30;0.80;;;5.20;99.90;;;;;;5009614;28;20045;-81
2023/12/23 07:56:01;;;;;;;3.10;0.60;;;5.20;99.90;;;;;;4997279;28;20126;-81
2023/12/23 07:58:27;;;;;;;4.07;1.00;;;5.20;99.90;;;;;;5003065;28;20046;-80
2023/12/23 08:00:53;;;;;;;6.45;1.20;;;5.20;99.90;;;;;;5002225;28;20057;-81
2023/12/23 08:03:19;;;;;;;3.03;0.60;;;5.20;99.90;;;;;;5007788;28;20104;-80
2023/12/23 08:05:44;;;;;;;3.03;0.90;;;5.20;99.90;;;;;;4997078;28;20041;-80
2023/12/23 08:08:10;;;;;;;10.70;2.60;;;5.20;99.90;;;;;;5007520;28;20073;-81
2023/12/23 08:10:37;;;;;;;5.30;1.48;;;5.20;99.90;;;;;;5008998;28;20049;-81
2023/12/23 08:13:03;;;;;;;2.20;0.68;;;5.30;99.90;;;;;;5009215;28;20041;-81
2023/12/23 08:15:29;;;;;;;2.63;0.60;;;5.30;99.90;;;;;;5006949;28;20104;-80
2023/12/23 08:17:55;;;;;;;5.35;0.98;;;5.20;99.90;;;;;;5015012;28;20065;-80
2023/12/23 08:20:20;;;;;;;4.65;0.75;;;5.60;99.90;;;;;;5010516;28;20054;-80
2023/12/23 08:22:46;;;;;;;1.38;0.50;;;5.20;99.90;;;;;;5011485;28;20034;-79
2023/12/23 08:25:12;;;;;;;2.95;0.70;;;5.20;99.90;;;;;;5012127;28;20410;-80
2023/12/23 08:27:38;;;;;;;2.28;0.50;;;5.20;99.90;;;;;;5005651;28;20409;-79
2023/12/23 08:30:06;;;;;;;2.92;0.60;;;5.20;99.90;;;;;;4998252;28;20052;-80
2023/12/23 08:32:32;;;;;;;2.03;0.60;;;5.30;99.90;;;;;;5002859;28;20072;-79
2023/12/23 08:34:58;;;;;;;1.60;0.40;;;5.20;99.90;;;;;;5002496;28;20439;-80
2023/12/23 08:37:24;;;;;;;3.47;0.93;;;5.20;99.90;;;;;;5009004;28;20049;-80
2023/12/23 08:39:50;;;;;;;1.33;0.40;;;5.20;99.90;;;;;;4996713;28;20137;-80
2023/12/23 08:42:16;;;;;;;3.13;0.70;;;5.20;99.90;;;;;;4993097;28;20508;-82
2023/12/23 08:44:42;;;;;;;2.58;0.50;;;5.30;99.90;;;;;;5004964;28;20393;-81
2023/12/23 08:47:07;;;;;;;0.93;0.40;;;5.30;99.90;;;;;;5006415;28;20038;-81
2023/12/23 08:49:33;;;;;;;2.30;0.50;;;5.30;99.90;;;;;;5009166;28;20042;-80
2023/12/23 08:51:58;;;;;;;2.00;0.80;;;5.30;99.90;;;;;;5008298;28;20485;-79
2023/12/23 08:54:24;;;;;;;1.48;0.50;;;5.30;99.90;;;;;;5008524;28;20042;-76
2023/12/23 08:56:50;;;;;;;1.17;0.45;;;5.30;99.90;;;;;;5007567;28;20481;-80
2023/12/23 08:59:16;;;;;;;4.10;0.80;;;5.30;99.90;;;;;;5002373;28;20184;-78
2023/12/23 09:01:43;;;;;;;1.40;0.40;;;5.30;99.90;;;;;;5008851;28;20453;-79
2023/12/23 09:04:09;;;;;;;5.07;1.23;;;5.30;99.90;;;;;;5026226;28;20058;-79
2023/12/23 09:06:35;;;;;;;2.22;0.60;;;5.30;99.90;;;;;;5014539;28;20083;-76
2023/12/23 09:09:01;;;;;;;1.90;0.50;;;5.30;99.90;;;;;;4992856;28;20402;-76
2023/12/23 09:11:28;;;;;;;1.20;0.50;;;5.30;99.90;;;;;;4992778;28;20046;-76
2023/12/23 09:13:54;;;;;;;1.98;0.75;;;5.30;99.90;;;;;;4990688;28;20140;-76
2023/12/23 09:16:19;;;;;;;2.33;0.50;;;5.30;99.90;;;;;;4991552;28;20094;-78
2023/12/23 09:18:45;;;;;;;0.85;0.50;;;5.30;99.90;;;;;;5001419;28;20046;-76
2023/12/23 09:21:10;;;;;;;1.33;0.50;;;5.40;99.90;;;;;;4999392;28;20048;-77
2023/12/23 09:23:37;;;;;;;1.90;0.68;;;5.40;99.90;;;;;;5009903;28;20046;-76
2023/12/23 09:26:03;;;;;;;1.05;0.40;;;5.40;99.90;;;;;;5009589;28;20078;-76
2023/12/23 09:28:29;;;;;;;1.60;0.50;;;5.40;99.90;;;;;;5005176;28;20133;-77
2023/12/23 09:30:54;;;;;;;1.83;0.38;;;5.40;99.90;;;;;;5009917;28;20065;-76
2023/12/23 09:33:20;;;;;;;1.58;0.40;;;5.40;99.90;;;;;;5005735;28;20050;-76
2023/12/23 09:35:46;;;;;;;1.00;0.40;;;5.40;99.90;;;;;;5008637;28;20052;-76
2023/12/23 09:38:12;;;;;;;2.30;0.40;;;5.40;99.90;;;;;;5008772;28;20050;-80
2023/12/23 09:40:38;;;;;;;2.20;0.45;;;5.40;99.90;;;;;;5007704;28;20758;-76
2023/12/23 09:43:05;;;;;;;1.65;0.50;;;5.40;99.90;;;;;;4992522;28;20050;-76
2023/12/23 09:45:32;;;;;;;2.83;1.35;;;5.40;99.90;;;;;;5009468;28;20069;-78
2023/12/23 09:47:59;;;;;;;5.50;2.20;;;5.40;99.90;;;;;;5008492;28;20325;-76
2023/12/23 09:50:24;;;;;;;3.15;1.90;;;5.40;99.90;;;;;;5006528;28;20496;-75
2023/12/23 09:52:55;;;;;;;0.90;0.32;;;5.40;99.90;;;;;;5000722;28;20042;-76
2023/12/23 09:55:21;;;;;;;2.25;0.60;;;5.40;99.90;;;;;;5012012;28;20049;-76
2023/12/23 09:57:47;;;;;;;1.35;0.38;;;5.40;99.90;;;;;;5020332;28;20103;-77
2023/12/23 10:00:13;;;;;;;1.15;0.50;;;5.40;99.90;;;;;;5007766;28;20494;-77
2023/12/23 10:02:39;;;;;;;0.88;0.32;;;5.40;99.90;;;;;;5009248;28;20409;-78
2023/12/23 10:05:05;;;;;;;0.85;0.30;;;5.50;99.90;;;;;;5001603;28;20045;-77
2023/12/23 10:07:31;;;;;;;0.73;0.30;;;5.50;99.90;;;;;;5010462;28;20096;-78
2023/12/23 10:09:57;;;;;;;1.42;0.45;;;5.50;99.90;;;;;;4996516;28;20053;-76
2023/12/23 10:12:23;;;;;;;0.55;0.20;;;5.40;99.90;;;;;;4994837;28;20049;-78
2023/12/23 10:14:49;;;;;;;1.55;0.30;;;5.40;99.90;;;;;;5010877;28;20057;-77
2023/12/23 10:17:17;;;;;;;1.63;0.60;;;5.40;99.90;;;;;;5011419;28;20827;-77
2023/12/23 10:19:43;;;;;;;1.52;0.50;;;5.40;99.90;;;;;;5005016;28;20369;-76
2023/12/23 10:22:09;;;;;;;44.22;20.85;;;5.50;99.90;;;;;;5011087;28;20449;-77
2023/12/23 10:24:38;;;;;;;2.97;0.80;;;5.50;99.90;;;;;;5013170;28;20073;-76
2023/12/23 10:27:04;;;;;;;1.23;0.60;;;5.50;99.90;;;;;;5012453;28;20066;-76
2023/12/23 10:29:33;;;;;;;2.00;0.80;;;5.50;99.90;;;;;;5011974;28;20046;-76
2023/12/23 10:32:07;;;;;;;1.38;0.50;;;5.50;99.90;;;;;;5006282;28;20089;-76
2023/12/23 10:34:43;;;;;;;2.20;0.77;;;5.50;99.90;;;;;;5009061;28;20116;-76
2023/12/23 10:37:13;;;;;;;3.53;0.57;;;5.50;99.90;;;;;;5012398;28;20429;-76
2023/12/23 10:39:49;;;;;;;1.85;0.60;;;6.00;99.90;;;;;;5012409;28;20046;-76
2023/12/23 10:42:20;;;;;;;1.08;0.40;;;5.50;99.90;;;;;;5012054;28;20061;-76
2023/12/23 10:44:46;;;;;;;1.30;0.40;;;5.50;99.90;;;;;;5017522;28;20107;-76
2023/12/23 10:47:14;;;;;;;0.80;0.32;;;5.50;99.90;;;;;;5016308;28;20057;-76
2023/12/23 10:49:41;;;;;;;1.15;0.40;;;5.50;99.90;;;;;;5013578;28;20098;-76
2023/12/23 10:52:08;;;;;;;3.83;1.90;;;5.50;99.90;;;;;;5012325;28;20402;-76
2023/12/23 10:54:36;;;;;;;2.05;0.70;;;5.50;99.90;;;;;;5012010;28;20501;-76
2023/12/23 10:57:02;;;;;;;1.85;0.60;;;5.50;99.90;;;;;;5018672;28;20460;-76
2023/12/23 10:59:28;;;;;;;1.13;0.45;;;5.60;99.90;;;;;;5032072;28;20044;-76
2023/12/23 11:01:56;;;;;;;0.93;0.30;;;5.60;99.90;;;;;;5014825;28;20050;-76
2023/12/23 11:04:25;;;;;;;1.73;0.50;;;5.60;99.90;;;;;;5015084;28;20078;-76
2023/12/23 11:06:52;;;;;;;1.50;0.40;;;5.60;99.90;;;;;;5013358;28;20057;-76
2023/12/23 11:09:20;;;;;;;1.70;0.60;;;5.60;99.90;;;;;;5013198;28;20050;-76
2023/12/23 11:11:47;;;;;;;1.92;0.43;;;5.60;99.90;;;;;;5012874;28;20046;-76
2023/12/23 11:14:14;;;;;;;0.50;0.30;;;5.60;99.90;;;;;;5010406;28;20049;-76
2023/12/23 11:16:41;;;;;;;1.50;0.60;;;5.60;99.90;;;;;;5011464;28;20486;-76
2023/12/23 11:19:07;;;;;;;1.10;0.52;;;5.60;99.90;;;;;;5011423;28;20058;-76
2023/12/23 11:21:36;;;;;;;1.52;0.55;;;5.60;99.90;;;;;;5011576;28;20085;-76
2023/12/23 11:24:02;;;;;;;1.10;0.50;;;5.70;99.90;;;;;;5011172;28;20129;-76
2023/12/23 11:26:41;;;;;;;2.22;0.90;;;5.70;99.90;;;;;;5011879;28;20081;-76
2023/12/23 11:29:14;;;;;;;3.10;1.10;;;5.80;99.90;;;;;;5011265;28;20050;-76
2023/12/23 11:31:41;;;;;;;1.58;0.80;;;5.60;99.90;;;;;;5010641;28;20448;-76
2023/12/23 11:34:17;;;;;;;3.75;2.47;;;5.70;99.90;;;;;;5003284;28;20089;-76
2023/12/23 11:36:44;;;;;;;2.97;1.38;;;5.70;99.90;;;;;;5009362;28;20046;-75
2023/12/23 11:39:15;;;;;;;1.75;0.82;;;5.70;99.90;;;;;;4984841;28;20074;-77
2023/12/23 11:41:42;;;;;;;2.88;1.00;;;5.70;99.90;;;;;;5013093;28;20107;-77
2023/12/23 11:44:10;;;;;;;3.35;1.10;;;5.70;99.90;;;;;;5010492;28;20054;-77
2023/12/23 11:46:37;;;;;;;2.53;1.17;;;5.70;99.90;;;;;;5009311;28;20050;-77
2023/12/23 11:49:06;;;;;;;1.92;0.60;;;5.70;99.90;;;;;;5010005;28;20589;-77
2023/12/23 11:51:32;;;;;;;2.78;1.30;;;5.80;99.90;;;;;;5011149;28;20100;-77
2023/12/23 11:53:58;;;;;;;2.53;0.95;;;5.80;99.90;;;;;;5009718;28;20053;-77
2023/12/23 11:56:23;;;;;;;2.92;1.23;;;5.80;99.90;;;;;;5001583;28;20050;-76
2023/12/23 11:58:50;;;;;;;2.88;1.23;;;5.70;99.90;;;;;;4991361;28;20043;-76
2023/12/23 12:01:18;;;;;;;1.90;0.98;;;5.70;99.90;;;;;;4992376;28;20108;-76
2023/12/23 12:03:43;;;;;;;2.00;0.63;;;5.80;99.90;;;;;;5003909;28;20046;-77
2023/12/23 12:06:09;;;;;;;2.28;0.63;;;5.80;99.90;;;;;;5012190;28;20062;-77
2023/12/23 12:08:35;;;;;;;2.72;1.05;;;5.80;99.90;;;;;;5009123;28;20099;-77
2023/12/23 12:11:02;;;;;;;8.32;4.97;;;5.70;99.90;;;;;;5010246;28;20413;-76
2023/12/23 12:13:28;;;;;;;10.63;5.47;;;5.80;99.90;;;;;;5010135;28;20092;-76
2023/12/23 12:15:54;;;;;;;9.27;4.60;;;5.80;99.90;;;;;;5009904;28;20099;-76
2023/12/23 12:18:20;;;;;;;3.63;1.70;;;5.80;99.90;;;;;;5008345;28;20050;-77
2023/12/23 12:20:46;;;;;;;41.85;6.05;;;5.80;99.90;;;;;;5012162;28;20054;-77
2023/12/23 12:23:14;;;;;;;20.88;8.18;;;5.80;99.90;;;;;;4992944;28;20053;-77
2023/12/23 12:25:46;;;;;;;9.05;4.43;;;5.80;99.90;;;;;;5008122;28;20047;-78
2023/12/23 12:28:12;;;;;;;4.20;2.03;;;6.10;99.90;;;;;;4985354;28;20391;-79
2023/12/23 12:30:38;;;;;;;4.55;1.90;;;5.90;99.90;;;;;;4994433;28;20056;-81
2023/12/23 12:33:04;;;;;;;3.45;1.48;;;5.80;99.90;;;;;;5006597;28;20061;-78
2023/12/23 12:35:30;;;;;;;3.45;1.50;;;5.90;99.90;;;;;;5007545;28;20042;-79
2023/12/23 12:37:56;;;;;;;3.15;1.30;;;5.90;99.90;;;;;;5008075;28;20046;-79
2023/12/23 12:40:22;;;;;;;3.67;1.27;;;5.90;99.90;;;;;;4974118;28;20050;-80
2023/12/23 12:42:50;;;;;;;3.55;1.42;;;5.90;99.90;;;;;;5008503;28;20057;-79
2023/12/23 12:45:17;;;;;;;3.30;1.40;;;6.00;99.90;;;;;;4993039;28;20065;-81
2023/12/23 12:47:44;;;;;;;3.88;1.42;;;5.90;99.90;;;;;;5008318;28;20041;-81